createdAt,value
2018-09-27T00:00:56.879Z,1016.09
2018-09-27T00:01:56.756Z,1016.11
2018-09-27T00:02:56.793Z,1016.09
2018-09-27T00:03:56.718Z,1016.09
2018-09-27T00:04:56.734Z,1016.07
2018-09-27T00:05:56.737Z,1016.19
2018-09-27T00:06:56.714Z,1016.16
2018-09-27T00:07:56.673Z,1016.19
2018-09-27T00:08:56.692Z,1016.20
2018-09-27T00:09:56.676Z,1016.21
2018-09-27T00:10:56.666Z,1016.16
2018-09-27T00:11:56.626Z,1016.14
2018-09-27T00:12:56.635Z,1016.11
2018-09-27T00:13:56.633Z,1016.08
2018-09-27T00:14:56.592Z,1016.01
2018-09-27T00:15:56.931Z,1016.02
2018-09-27T00:16:56.579Z,1016.07
2018-09-27T00:17:56.568Z,1016.03
2018-09-27T00:18:56.556Z,1016.07
2018-09-27T00:19:56.604Z,1016.10
2018-09-27T00:20:56.576Z,1016.10
2018-09-27T00:21:56.520Z,1016.09
2018-09-27T00:22:56.531Z,1016.13
2018-09-27T00:23:56.691Z,1016.06
2018-09-27T00:24:56.503Z,1015.99
2018-09-27T00:25:56.523Z,1016.03
2018-09-27T00:26:56.499Z,1016.02
2018-09-27T00:27:56.477Z,1016.01
2018-09-27T00:28:56.458Z,1016.01
2018-09-27T00:29:56.480Z,1016.03
2018-09-27T00:30:56.466Z,1016.02
2018-09-27T00:31:56.426Z,1016.00
2018-09-27T00:32:56.422Z,1016.01
2018-09-27T00:33:56.502Z,1015.96
2018-09-27T00:34:56.377Z,1015.97
2018-09-27T00:35:56.417Z,1015.99
2018-09-27T00:36:56.405Z,1015.97
2018-09-27T00:37:56.384Z,1015.95
2018-09-27T00:38:56.343Z,1015.96
2018-09-27T00:39:56.326Z,1015.97
2018-09-27T00:40:56.340Z,1015.99
2018-09-27T00:41:56.305Z,1016.01
2018-09-27T00:42:56.298Z,1015.98
2018-09-27T00:43:56.288Z,1015.93
2018-09-27T00:44:56.278Z,1015.95
2018-09-27T00:45:56.334Z,1015.94
2018-09-27T00:46:56.254Z,1015.89
2018-09-27T00:47:56.244Z,1015.90
2018-09-27T00:48:56.249Z,1015.86
2018-09-27T00:49:56.245Z,1015.87
2018-09-27T00:50:56.267Z,1015.84
2018-09-27T00:51:56.198Z,1015.86
2018-09-27T00:52:56.189Z,1015.78
2018-09-27T00:53:56.171Z,1015.84
2018-09-27T00:54:56.160Z,1015.82
2018-09-27T00:55:56.151Z,1015.78
2018-09-27T00:56:56.180Z,1015.83
2018-09-27T00:57:56.179Z,1015.86
2018-09-27T00:58:56.131Z,1015.85
2018-09-27T00:59:56.152Z,1015.85
2018-09-27T01:00:56.141Z,1015.84
2018-09-27T01:01:56.087Z,1015.86
2018-09-27T01:02:56.097Z,1015.87
2018-09-27T01:03:56.070Z,1015.87
2018-09-27T01:04:56.054Z,1015.85
2018-09-27T01:05:56.057Z,1015.88
2018-09-27T01:06:56.033Z,1015.87
2018-09-27T01:07:56.021Z,1015.91
2018-09-27T01:08:56.017Z,1015.90
2018-09-27T01:09:56.005Z,1015.93
2018-09-27T01:10:56.019Z,1015.95
2018-09-27T01:11:56.012Z,1015.88
2018-09-27T01:12:55.986Z,1015.88
2018-09-27T01:13:55.955Z,1015.87
2018-09-27T01:14:55.943Z,1015.89
2018-09-27T01:15:55.962Z,1015.89
2018-09-27T01:16:55.928Z,1015.88
2018-09-27T01:17:55.918Z,1015.84
2018-09-27T01:18:55.901Z,1015.83
2018-09-27T01:19:55.922Z,1015.87
2018-09-27T01:20:55.887Z,1015.81
2018-09-27T01:21:55.908Z,1015.81
2018-09-27T01:22:55.864Z,1015.79
2018-09-27T01:23:55.852Z,1015.78
2018-09-27T01:24:55.842Z,1015.77
2018-09-27T01:25:55.845Z,1015.78
2018-09-27T01:26:55.813Z,1015.77
2018-09-27T01:27:55.822Z,1015.77
2018-09-27T01:28:55.809Z,1015.75
2018-09-27T01:29:55.815Z,1015.75
2018-09-27T01:30:55.860Z,1015.78
2018-09-27T01:31:55.764Z,1015.76
2018-09-27T01:32:55.755Z,1015.73
2018-09-27T01:33:55.766Z,1015.72
2018-09-27T01:34:55.740Z,1015.73
2018-09-27T01:35:55.815Z,1015.72
2018-09-27T01:36:55.733Z,1015.67
2018-09-27T01:37:55.718Z,1015.69
2018-09-27T01:38:55.709Z,1015.66
2018-09-27T01:39:55.681Z,1015.69
2018-09-27T01:40:55.669Z,1015.73
2018-09-27T01:41:55.658Z,1015.73
2018-09-27T01:42:55.646Z,1015.72
2018-09-27T01:43:55.630Z,1015.73
2018-09-27T01:44:55.645Z,1015.72
2018-09-27T01:45:55.615Z,1015.72
2018-09-27T01:46:55.603Z,1015.69
2018-09-27T01:47:55.594Z,1015.72
2018-09-27T01:48:55.577Z,1015.68
2018-09-27T01:49:55.584Z,1015.60
2018-09-27T01:50:55.559Z,1015.65
2018-09-27T01:51:55.575Z,1015.62
2018-09-27T01:52:55.534Z,1015.63
2018-09-27T01:53:55.538Z,1015.62
2018-09-27T01:54:55.538Z,1015.59
2018-09-27T01:55:55.550Z,1015.59
2018-09-27T01:56:55.506Z,1015.58
2018-09-27T01:57:55.513Z,1015.56
2018-09-27T01:58:55.471Z,1015.61
2018-09-27T01:59:55.463Z,1015.61
2018-09-27T02:00:55.452Z,1015.61
2018-09-27T02:01:55.443Z,1015.63
2018-09-27T02:02:55.427Z,1015.63
2018-09-27T02:03:55.431Z,1015.66
2018-09-27T02:04:55.409Z,1015.64
2018-09-27T02:05:55.400Z,1015.62
2018-09-27T02:06:55.388Z,1015.59
2018-09-27T02:07:55.370Z,1015.57
2018-09-27T02:08:55.385Z,1015.52
2018-09-27T02:09:55.353Z,1015.51
2018-09-27T02:10:55.370Z,1015.55
2018-09-27T02:11:55.335Z,1015.46
2018-09-27T02:12:55.317Z,1015.47
2018-09-27T02:13:55.310Z,1015.45
2018-09-27T02:14:55.300Z,1015.48
2018-09-27T02:15:55.310Z,1015.44
2018-09-27T02:16:55.280Z,1015.47
2018-09-27T02:17:55.266Z,1015.46
2018-09-27T02:18:55.257Z,1015.47
2018-09-27T02:19:55.247Z,1015.44
2018-09-27T02:20:55.306Z,1015.42
2018-09-27T02:21:55.239Z,1015.45
2018-09-27T02:22:55.213Z,1015.40
2018-09-27T02:23:55.204Z,1015.39
2018-09-27T02:24:55.239Z,1015.34
2018-09-27T02:25:55.198Z,1015.34
2018-09-27T02:26:55.173Z,1015.32
2018-09-27T02:27:55.154Z,1015.30
2018-09-27T02:28:55.150Z,1015.28
2018-09-27T02:29:55.137Z,1015.26
2018-09-27T02:30:55.150Z,1015.28
2018-09-27T02:31:55.120Z,1015.26
2018-09-27T02:32:55.100Z,1015.23
2018-09-27T02:33:55.091Z,1015.21
2018-09-27T02:34:55.092Z,1015.25
2018-09-27T02:35:55.093Z,1015.23
2018-09-27T02:36:55.084Z,1015.20
2018-09-27T02:37:55.050Z,1015.14
2018-09-27T02:38:55.050Z,1015.12
2018-09-27T02:39:55.050Z,1015.10
2018-09-27T02:40:55.446Z,1015.10
2018-09-27T02:41:55.138Z,1015.08
2018-09-27T02:42:54.997Z,1015.08
2018-09-27T02:43:54.998Z,1015.08
2018-09-27T02:44:54.979Z,1015.01
2018-09-27T02:45:54.996Z,1015.05
2018-09-27T02:46:54.954Z,1015.07
2018-09-27T02:47:54.986Z,1015.00
2018-09-27T02:48:54.939Z,1015.05
2018-09-27T02:49:54.938Z,1015.07
2018-09-27T02:50:54.924Z,1015.04
2018-09-27T02:51:54.932Z,1015.07
2018-09-27T02:52:54.913Z,1015.01
2018-09-27T02:53:54.874Z,1015.00
2018-09-27T02:54:54.883Z,1015.05
2018-09-27T02:55:54.882Z,1014.97
2018-09-27T02:56:54.847Z,1014.99
2018-09-27T02:57:54.831Z,1015.00
2018-09-27T02:58:54.830Z,1015.00
2018-09-27T02:59:54.808Z,1015.02
2018-09-27T03:00:54.810Z,1014.98
2018-09-27T03:01:54.812Z,1014.96
2018-09-27T03:02:54.790Z,1014.97
2018-09-27T03:03:54.789Z,1014.95
2018-09-27T03:04:54.754Z,1014.98
2018-09-27T03:05:54.768Z,1014.95
2018-09-27T03:06:54.764Z,1014.95
2018-09-27T03:07:54.723Z,1014.96
2018-09-27T03:08:54.716Z,1014.94
2018-09-27T03:09:54.706Z,1014.92
2018-09-27T03:10:54.698Z,1014.92
2018-09-27T03:11:54.695Z,1014.89
2018-09-27T03:12:54.685Z,1014.92
2018-09-27T03:13:54.785Z,1014.83
2018-09-27T03:14:54.652Z,1014.88
2018-09-27T03:15:54.649Z,1014.84
2018-09-27T03:16:54.665Z,1014.87
2018-09-27T03:17:54.632Z,1014.86
2018-09-27T03:18:54.607Z,1014.85
2018-09-27T03:19:54.592Z,1014.85
2018-09-27T03:20:54.650Z,1014.82
2018-09-27T03:21:54.604Z,1014.87
2018-09-27T03:22:54.589Z,1014.83
2018-09-27T03:23:54.563Z,1014.85
2018-09-27T03:24:54.542Z,1014.81
2018-09-27T03:25:54.528Z,1014.78
2018-09-27T03:26:54.538Z,1014.79
2018-09-27T03:27:54.512Z,1014.76
2018-09-27T03:28:54.495Z,1014.72
2018-09-27T03:29:54.554Z,1014.76
2018-09-27T03:30:54.478Z,1014.76
2018-09-27T03:31:54.481Z,1014.78
2018-09-27T03:32:54.461Z,1014.76
2018-09-27T03:33:54.444Z,1014.77
2018-09-27T03:34:54.434Z,1014.79
2018-09-27T03:35:54.426Z,1014.78
2018-09-27T03:36:54.438Z,1014.79
2018-09-27T03:37:54.401Z,1014.72
2018-09-27T03:38:54.389Z,1014.71
2018-09-27T03:39:54.380Z,1014.70
2018-09-27T03:40:54.373Z,1014.69
2018-09-27T03:41:54.380Z,1014.67
2018-09-27T03:42:54.375Z,1014.67
2018-09-27T03:43:54.331Z,1014.66
2018-09-27T03:44:54.329Z,1014.69
2018-09-27T03:45:54.345Z,1014.61
2018-09-27T03:46:54.303Z,1014.61
2018-09-27T03:47:54.299Z,1014.61
2018-09-27T03:48:54.300Z,1014.62
2018-09-27T03:49:54.283Z,1014.60
2018-09-27T03:50:54.269Z,1014.61
2018-09-27T03:51:54.288Z,1014.62
2018-09-27T03:52:54.242Z,1014.59
2018-09-27T03:53:54.250Z,1014.61
2018-09-27T03:54:54.218Z,1014.62
2018-09-27T03:55:54.209Z,1014.63
2018-09-27T03:56:54.196Z,1014.52
2018-09-27T03:57:54.205Z,1014.56
2018-09-27T03:58:54.175Z,1014.55
2018-09-27T03:59:54.170Z,1014.50
2018-09-27T04:00:54.148Z,1014.53
2018-09-27T04:01:54.160Z,1014.52
2018-09-27T04:02:54.130Z,1014.46
2018-09-27T04:03:54.134Z,1014.50
2018-09-27T04:04:54.112Z,1014.52
2018-09-27T04:05:54.123Z,1014.52
2018-09-27T04:06:54.088Z,1014.53
2018-09-27T04:07:54.083Z,1014.52
2018-09-27T04:08:54.062Z,1014.55
2018-09-27T04:09:54.056Z,1014.55
2018-09-27T04:10:54.063Z,1014.55
2018-09-27T04:11:54.054Z,1014.52
2018-09-27T04:12:54.028Z,1014.52
2018-09-27T04:13:54.035Z,1014.57
2018-09-27T04:14:54.005Z,1014.56
2018-09-27T04:15:54.101Z,1014.54
2018-09-27T04:16:53.988Z,1014.51
2018-09-27T04:17:53.987Z,1014.54
2018-09-27T04:18:53.985Z,1014.51
2018-09-27T04:19:53.980Z,1014.51
2018-09-27T04:20:53.990Z,1014.45
2018-09-27T04:21:54.004Z,1014.46
2018-09-27T04:22:53.913Z,1014.46
2018-09-27T04:23:53.922Z,1014.49
2018-09-27T04:24:53.897Z,1014.44
2018-09-27T04:25:53.884Z,1014.42
2018-09-27T04:26:53.909Z,1014.43
2018-09-27T04:27:53.895Z,1014.42
2018-09-27T04:28:53.887Z,1014.44
2018-09-27T04:29:53.837Z,1014.42
2018-09-27T04:30:53.829Z,1014.40
2018-09-27T04:31:53.821Z,1014.39
2018-09-27T04:32:53.803Z,1014.38
2018-09-27T04:33:53.837Z,1014.37
2018-09-27T04:34:53.805Z,1014.39
2018-09-27T04:35:53.771Z,1014.33
2018-09-27T04:36:53.786Z,1014.35
2018-09-27T04:37:53.754Z,1014.36
2018-09-27T04:38:53.743Z,1014.35
2018-09-27T04:39:53.826Z,1014.33
2018-09-27T04:40:53.741Z,1014.33
2018-09-27T04:41:53.745Z,1014.34
2018-09-27T04:42:53.698Z,1014.36
2018-09-27T04:43:53.718Z,1014.39
2018-09-27T04:44:53.683Z,1014.36
2018-09-27T04:45:53.693Z,1014.38
2018-09-27T04:46:53.686Z,1014.35
2018-09-27T04:47:53.642Z,1014.36
2018-09-27T04:48:53.637Z,1014.37
2018-09-27T04:49:53.630Z,1014.35
2018-09-27T04:50:53.614Z,1014.32
2018-09-27T04:51:53.668Z,1014.34
2018-09-27T04:52:53.606Z,1014.36
2018-09-27T04:53:53.580Z,1014.35
2018-09-27T04:54:53.600Z,1014.33
2018-09-27T04:55:53.570Z,1014.34
2018-09-27T04:56:53.600Z,1014.37
2018-09-27T04:57:53.563Z,1014.37
2018-09-27T04:58:54.914Z,1014.37
2018-09-27T04:59:53.580Z,1014.40
2018-09-27T05:00:53.580Z,1014.37
2018-09-27T05:01:54.310Z,1014.39
2018-09-27T05:02:53.516Z,1014.42
2018-09-27T05:03:53.517Z,1014.35
2018-09-27T05:04:53.473Z,1014.39
2018-09-27T05:05:53.453Z,1014.38
2018-09-27T05:06:53.513Z,1014.42
2018-09-27T05:07:53.695Z,1014.39
2018-09-27T05:08:53.464Z,1014.39
2018-09-27T05:09:53.493Z,1014.41
2018-09-27T05:10:53.450Z,1014.40
2018-09-27T05:11:53.492Z,1014.40
2018-09-27T05:12:53.413Z,1014.41
2018-09-27T05:13:53.449Z,1014.40
2018-09-27T05:14:53.517Z,1014.38
2018-09-27T05:15:53.581Z,1014.35
2018-09-27T05:16:53.352Z,1014.37
2018-09-27T05:17:53.590Z,1014.39
2018-09-27T05:18:53.444Z,1014.39
2018-09-27T05:19:53.313Z,1014.41
2018-09-27T05:20:53.338Z,1014.38
2018-09-27T05:21:53.292Z,1014.37
2018-09-27T05:22:53.418Z,1014.39
2018-09-27T05:23:53.261Z,1014.39
2018-09-27T05:24:53.865Z,1014.36
2018-09-27T05:25:53.332Z,1014.36
2018-09-27T05:26:53.235Z,1014.37
2018-09-27T05:27:53.244Z,1014.30
2018-09-27T05:28:53.206Z,1014.34
2018-09-27T05:29:53.196Z,1014.38
2018-09-27T05:30:53.182Z,1014.33
2018-09-27T05:31:53.177Z,1014.33
2018-09-27T05:32:53.211Z,1014.34
2018-09-27T05:33:53.166Z,1014.32
2018-09-27T05:34:53.151Z,1014.33
2018-09-27T05:35:53.457Z,1014.28
2018-09-27T05:36:53.767Z,1014.34
2018-09-27T05:37:53.217Z,1014.35
2018-09-27T05:38:53.095Z,1014.33
2018-09-27T05:39:53.722Z,1014.30
2018-09-27T05:40:53.294Z,1014.28
2018-09-27T05:41:53.116Z,1014.27
2018-09-27T05:42:53.087Z,1014.27
2018-09-27T05:43:53.057Z,1014.25
2018-09-27T05:44:53.057Z,1014.29
2018-09-27T05:45:53.296Z,1014.24
2018-09-27T05:46:53.007Z,1014.21
2018-09-27T05:47:53.015Z,1014.26
2018-09-27T05:48:53.012Z,1014.21
2018-09-27T05:49:52.996Z,1014.24
2018-09-27T05:50:53.073Z,1014.22
2018-09-27T05:51:53.317Z,1014.28
2018-09-27T05:52:52.981Z,1014.32
2018-09-27T05:53:53.035Z,1014.33
2018-09-27T05:54:52.927Z,1014.29
2018-09-27T05:55:54.163Z,1014.30
2018-09-27T05:56:52.943Z,1014.26
2018-09-27T05:57:52.924Z,1014.28
2018-09-27T05:58:52.887Z,1014.29
2018-09-27T05:59:53.197Z,1014.29
2018-09-27T06:00:52.867Z,1014.31
2018-09-27T06:01:52.958Z,1014.33
2018-09-27T06:02:52.901Z,1014.31
2018-09-27T06:03:52.828Z,1014.33
2018-09-27T06:04:52.924Z,1014.32
2018-09-27T06:05:52.800Z,1014.33
2018-09-27T06:06:52.796Z,1014.35
2018-09-27T06:07:52.802Z,1014.34
2018-09-27T06:08:52.777Z,1014.32
2018-09-27T06:09:52.791Z,1014.37
2018-09-27T06:10:52.895Z,1014.38
2018-09-27T06:11:52.738Z,1014.37
2018-09-27T06:12:52.762Z,1014.36
2018-09-27T06:13:52.750Z,1014.35
2018-09-27T06:14:52.756Z,1014.33
2018-09-27T06:15:52.709Z,1014.31
2018-09-27T06:16:52.825Z,1014.31
2018-09-27T06:17:52.760Z,1014.32
2018-09-27T06:18:52.689Z,1014.31
2018-09-27T06:19:52.834Z,1014.36
2018-09-27T06:20:52.655Z,1014.36
2018-09-27T06:21:52.776Z,1014.35
2018-09-27T06:22:52.673Z,1014.33
2018-09-27T06:23:52.663Z,1014.34
2018-09-27T06:24:52.691Z,1014.31
2018-09-27T06:25:52.615Z,1014.27
2018-09-27T06:26:52.587Z,1014.28
2018-09-27T06:27:52.598Z,1014.30
2018-09-27T06:28:52.592Z,1014.18
2018-09-27T06:29:52.624Z,1014.22
2018-09-27T06:30:52.567Z,1014.26
2018-09-27T06:31:52.694Z,1014.22
2018-09-27T06:32:52.631Z,1014.27
2018-09-27T06:33:52.530Z,1014.26
2018-09-27T06:34:52.533Z,1014.27
2018-09-27T06:35:52.680Z,1014.29
2018-09-27T06:36:52.656Z,1014.28
2018-09-27T06:37:52.459Z,1014.32
2018-09-27T06:38:52.645Z,1014.28
2018-09-27T06:39:52.463Z,1014.31
2018-09-27T06:40:52.435Z,1014.32
2018-09-27T06:41:52.441Z,1014.32
2018-09-27T06:42:52.410Z,1014.25
2018-09-27T06:43:52.483Z,1014.33
2018-09-27T06:44:53.680Z,1014.27
2018-09-27T06:45:52.386Z,1014.33
2018-09-27T06:46:52.363Z,1014.28
2018-09-27T06:47:52.359Z,1014.28
2018-09-27T06:48:52.525Z,1014.26
2018-09-27T06:49:52.333Z,1014.30
2018-09-27T06:50:52.321Z,1014.31
2018-09-27T06:51:52.315Z,1014.33
2018-09-27T06:52:52.544Z,1014.26
2018-09-27T06:53:52.312Z,1014.24
2018-09-27T06:54:52.391Z,1014.29
2018-09-27T06:55:52.509Z,1014.25
2018-09-27T06:56:52.375Z,1014.27
2018-09-27T06:57:52.244Z,1014.28
2018-09-27T06:58:52.260Z,1014.25
2018-09-27T06:59:52.267Z,1014.26
2018-09-27T07:00:52.292Z,1014.17
2018-09-27T07:01:52.545Z,1014.17
2018-09-27T07:02:52.255Z,1014.13
2018-09-27T07:03:52.218Z,1014.14
2018-09-27T07:04:52.419Z,1014.14
2018-09-27T07:05:52.276Z,1014.13
2018-09-27T07:06:52.308Z,1014.10
2018-09-27T07:07:52.221Z,1014.10
2018-09-27T07:08:52.245Z,1014.13
2018-09-27T07:09:52.124Z,1014.12
2018-09-27T07:10:52.126Z,1014.19
2018-09-27T07:11:52.139Z,1014.18
2018-09-27T07:12:52.420Z,1014.15
2018-09-27T07:13:52.085Z,1014.19
2018-09-27T07:14:52.116Z,1014.17
2018-09-27T07:15:52.448Z,1014.17
2018-09-27T07:16:52.088Z,1014.18
2018-09-27T07:17:52.287Z,1014.20
2018-09-27T07:18:52.113Z,1014.18
2018-09-27T07:19:52.092Z,1014.20
2018-09-27T07:20:51.994Z,1014.29
2018-09-27T07:21:51.996Z,1014.26
2018-09-27T07:22:51.970Z,1014.25
2018-09-27T07:23:51.975Z,1014.27
2018-09-27T07:24:52.159Z,1014.32
2018-09-27T07:25:51.962Z,1014.31
2018-09-27T07:26:52.016Z,1014.26
2018-09-27T07:27:51.927Z,1014.32
2018-09-27T07:28:51.939Z,1014.33
2018-09-27T07:29:51.943Z,1014.29
2018-09-27T07:30:51.909Z,1014.28
2018-09-27T07:31:51.876Z,1014.26
2018-09-27T07:32:51.923Z,1014.27
2018-09-27T07:33:51.885Z,1014.23
2018-09-27T07:34:51.861Z,1014.24
2018-09-27T07:35:51.844Z,1014.19
2018-09-27T07:36:52.149Z,1014.17
2018-09-27T07:37:51.812Z,1014.15
2018-09-27T07:38:51.832Z,1014.13
2018-09-27T07:39:52.059Z,1014.08
2018-09-27T07:40:51.986Z,1014.12
2018-09-27T07:41:51.793Z,1014.13
2018-09-27T07:42:51.844Z,1014.10
2018-09-27T07:43:51.769Z,1014.12
2018-09-27T07:44:52.060Z,1014.10
2018-09-27T07:45:51.741Z,1014.07
2018-09-27T07:46:51.779Z,1014.12
2018-09-27T07:47:52.773Z,1014.08
2018-09-27T07:48:51.717Z,1014.03
2018-09-27T07:49:52.030Z,1014.09
2018-09-27T07:50:52.033Z,1014.09
2018-09-27T07:51:52.134Z,1014.08
2018-09-27T07:52:51.651Z,1014.11
2018-09-27T07:53:51.634Z,1014.15
2018-09-27T07:54:51.746Z,1014.15
2018-09-27T07:55:51.613Z,1014.14
2018-09-27T07:56:51.657Z,1014.12
2018-09-27T07:57:51.601Z,1014.10
2018-09-27T07:58:51.748Z,1014.09
2018-09-27T07:59:51.616Z,1014.05
2018-09-27T08:00:51.591Z,1014.11
2018-09-27T08:01:51.567Z,1014.05
2018-09-27T08:02:51.672Z,1014.07
2018-09-27T08:03:51.597Z,1014.08
2018-09-27T08:04:51.546Z,1014.06
2018-09-27T08:05:51.522Z,1014.09
2018-09-27T08:06:51.513Z,1014.09
2018-09-27T08:07:51.500Z,1014.09
2018-09-27T08:08:51.573Z,1014.12
2018-09-27T08:09:51.968Z,1014.05
2018-09-27T08:10:51.462Z,1014.07
2018-09-27T08:11:51.483Z,1014.06
2018-09-27T08:12:51.471Z,1014.01
2018-09-27T08:13:51.461Z,1014.02
2018-09-27T08:14:51.504Z,1014.04
2018-09-27T08:15:51.413Z,1014.03
2018-09-27T08:16:51.411Z,1014.03
2018-09-27T08:17:51.379Z,1014.02
2018-09-27T08:18:51.402Z,1014.06
2018-09-27T08:19:51.396Z,1013.99
2018-09-27T08:20:51.450Z,1013.99
2018-09-27T08:21:51.343Z,1014.02
2018-09-27T08:22:51.326Z,1013.96
2018-09-27T08:23:51.362Z,1013.98
2018-09-27T08:24:52.984Z,1013.94
2018-09-27T08:25:51.757Z,1013.97
2018-09-27T08:26:51.277Z,1013.95
2018-09-27T08:27:51.292Z,1013.92
2018-09-27T08:28:51.395Z,1013.94
2018-09-27T08:29:51.354Z,1013.91
2018-09-27T08:30:51.986Z,1013.87
2018-09-27T08:31:51.412Z,1013.86
2018-09-27T08:32:51.247Z,1013.87
2018-09-27T08:33:51.208Z,1013.91
2018-09-27T08:34:51.209Z,1013.91
2018-09-27T08:35:51.185Z,1013.89
2018-09-27T08:36:51.505Z,1013.88
2018-09-27T08:37:51.160Z,1013.88
2018-09-27T08:38:51.294Z,1013.88
2018-09-27T08:39:51.160Z,1013.92
2018-09-27T08:40:51.128Z,1013.89
2018-09-27T08:41:51.160Z,1013.88
2018-09-27T08:42:51.150Z,1013.88
2018-09-27T08:43:51.097Z,1013.83
2018-09-27T08:44:51.284Z,1013.86
2018-09-27T08:45:51.079Z,1013.84
2018-09-27T08:46:51.070Z,1013.86
2018-09-27T08:47:51.102Z,1013.83
2018-09-27T08:48:51.101Z,1013.83
2018-09-27T08:49:51.066Z,1013.85
2018-09-27T08:50:51.540Z,1013.80
2018-09-27T08:51:51.033Z,1013.82
2018-09-27T08:52:51.025Z,1013.80
2018-09-27T08:53:51.228Z,1013.73
2018-09-27T08:54:50.979Z,1013.73
2018-09-27T08:55:51.086Z,1013.73
2018-09-27T08:56:51.416Z,1013.77
2018-09-27T08:57:50.941Z,1013.73
2018-09-27T08:58:52.523Z,1013.68
2018-09-27T08:59:50.924Z,1013.68
2018-09-27T09:00:50.930Z,1013.66
2018-09-27T09:01:50.914Z,1013.67
2018-09-27T09:02:51.111Z,1013.66
2018-09-27T09:03:50.927Z,1013.60
2018-09-27T09:04:50.899Z,1013.62
2018-09-27T09:05:51.077Z,1013.60
2018-09-27T09:06:50.862Z,1013.59
2018-09-27T09:07:51.068Z,1013.60
2018-09-27T09:08:50.946Z,1013.59
2018-09-27T09:09:50.845Z,1013.55
2018-09-27T09:10:50.974Z,1013.48
2018-09-27T09:11:50.869Z,1013.47
2018-09-27T09:12:50.998Z,1013.40
2018-09-27T09:13:50.776Z,1013.46
2018-09-27T09:14:50.762Z,1013.43
2018-09-27T09:15:50.932Z,1013.41
2018-09-27T09:16:50.770Z,1013.45
2018-09-27T09:17:50.792Z,1013.45
2018-09-27T09:18:50.772Z,1013.47
2018-09-27T09:19:50.866Z,1013.47
2018-09-27T09:20:50.719Z,1013.45
2018-09-27T09:21:50.838Z,1013.39
2018-09-27T09:22:50.987Z,1013.40
2018-09-27T09:23:50.663Z,1013.41
2018-09-27T09:24:50.702Z,1013.38
2018-09-27T09:25:50.706Z,1013.37
2018-09-27T09:26:50.786Z,1013.37
2018-09-27T09:27:50.682Z,1013.31
2018-09-27T09:28:50.725Z,1013.32
2018-09-27T09:29:51.074Z,1013.29
2018-09-27T09:30:50.602Z,1013.33
2018-09-27T09:31:50.999Z,1013.20
2018-09-27T09:32:51.110Z,1013.26
2018-09-27T09:33:50.613Z,1013.18
2018-09-27T09:34:50.594Z,1013.19
2018-09-27T09:35:51.217Z,1013.15
2018-09-27T09:36:50.797Z,1013.18
2018-09-27T09:37:50.652Z,1013.12
2018-09-27T09:38:50.595Z,1013.10
2018-09-27T09:39:50.526Z,1013.13
2018-09-27T09:40:50.699Z,1013.15
2018-09-27T09:41:50.648Z,1013.06
2018-09-27T09:42:50.473Z,1012.99
2018-09-27T09:43:50.451Z,1013.01
2018-09-27T09:44:50.456Z,1012.94
2018-09-27T09:45:50.460Z,1012.96
2018-09-27T09:46:51.273Z,1012.95
2018-09-27T09:47:50.623Z,1012.91
2018-09-27T09:48:50.670Z,1012.88
2018-09-27T09:49:50.406Z,1012.89
2018-09-27T09:50:50.459Z,1012.90
2018-09-27T09:51:50.457Z,1012.88
2018-09-27T09:52:50.386Z,1012.89
2018-09-27T09:53:50.401Z,1012.87
2018-09-27T09:54:50.348Z,1012.89
2018-09-27T09:55:50.324Z,1012.90
2018-09-27T09:56:50.330Z,1012.86
2018-09-27T09:57:50.315Z,1012.83
2018-09-27T09:58:50.374Z,1012.78
2018-09-27T09:59:50.519Z,1012.77
2018-09-27T10:00:50.282Z,1012.76
2018-09-27T10:01:50.397Z,1012.77
2018-09-27T10:02:50.650Z,1012.71
2018-09-27T10:03:50.285Z,1012.78
2018-09-27T10:04:50.288Z,1012.72
2018-09-27T10:05:50.238Z,1012.71
2018-09-27T10:06:50.273Z,1012.66
2018-09-27T10:07:50.236Z,1012.64
2018-09-27T10:08:52.022Z,1012.63
2018-09-27T10:09:50.191Z,1012.59
2018-09-27T10:10:50.245Z,1012.55
2018-09-27T10:11:50.420Z,1012.55
2018-09-27T10:12:50.510Z,1012.49
2018-09-27T10:13:50.188Z,1012.51
2018-09-27T10:14:50.266Z,1012.52
2018-09-27T10:15:50.119Z,1012.52
2018-09-27T10:16:50.083Z,1012.51
2018-09-27T10:17:50.114Z,1012.48
2018-09-27T10:18:50.080Z,1012.46
2018-09-27T10:19:50.080Z,1012.43
2018-09-27T10:20:50.504Z,1012.42
2018-09-27T10:21:50.384Z,1012.39
2018-09-27T10:22:50.176Z,1012.39
2018-09-27T10:23:50.016Z,1012.33
2018-09-27T10:24:50.136Z,1012.38
2018-09-27T10:25:50.057Z,1012.36
2018-09-27T10:26:49.984Z,1012.29
2018-09-27T10:27:49.973Z,1012.27
2018-09-27T10:28:49.956Z,1012.27
2018-09-27T10:29:50.142Z,1012.24
2018-09-27T10:30:49.934Z,1012.28
2018-09-27T10:31:49.954Z,1012.25
2018-09-27T10:32:49.922Z,1012.26
2018-09-27T10:33:50.122Z,1012.25
2018-09-27T10:34:49.939Z,1012.24
2018-09-27T10:35:50.021Z,1012.23
2018-09-27T10:36:49.874Z,1012.22
2018-09-27T10:37:49.884Z,1012.20
2018-09-27T10:38:50.244Z,1012.23
2018-09-27T10:39:49.936Z,1012.18
2018-09-27T10:40:49.925Z,1012.13
2018-09-27T10:41:50.036Z,1012.10
2018-09-27T10:42:50.439Z,1012.11
2018-09-27T10:43:49.806Z,1012.11
2018-09-27T10:44:49.879Z,1012.06
2018-09-27T10:45:50.522Z,1012.07
2018-09-27T10:46:49.794Z,1012.10
2018-09-27T10:47:49.777Z,1012.12
2018-09-27T10:48:49.924Z,1012.11
2018-09-27T10:49:49.732Z,1012.12
2018-09-27T10:50:49.721Z,1012.09
2018-09-27T10:51:49.732Z,1012.07
2018-09-27T10:52:49.961Z,1012.06
2018-09-27T10:53:49.784Z,1012.00
2018-09-27T10:54:49.709Z,1012.01
2018-09-27T10:55:49.706Z,1012.02
2018-09-27T10:56:50.066Z,1012.03
2018-09-27T10:57:49.665Z,1012.04
2018-09-27T10:58:49.636Z,1012.02
2018-09-27T10:59:49.733Z,1012.05
2018-09-27T11:00:49.628Z,1011.98
2018-09-27T11:01:49.671Z,1011.98
2018-09-27T11:02:49.634Z,1011.97
2018-09-27T11:03:51.338Z,1011.91
2018-09-27T11:04:49.607Z,1011.96
2018-09-27T11:05:49.966Z,1011.89
2018-09-27T11:06:49.550Z,1011.92
2018-09-27T11:07:49.598Z,1011.87
2018-09-27T11:08:49.531Z,1011.85
2018-09-27T11:09:49.518Z,1011.87
2018-09-27T11:10:49.557Z,1011.91
2018-09-27T11:11:49.532Z,1011.92
2018-09-27T11:12:49.490Z,1011.85
2018-09-27T11:13:49.470Z,1011.81
2018-09-27T11:14:49.469Z,1011.81
2018-09-27T11:15:49.463Z,1011.72
2018-09-27T11:16:49.493Z,1011.76
2018-09-27T11:17:49.523Z,1011.71
2018-09-27T11:18:49.459Z,1011.73
2018-09-27T11:19:49.412Z,1011.75
2018-09-27T11:20:49.396Z,1011.72
2018-09-27T11:21:49.441Z,1011.71
2018-09-27T11:22:49.470Z,1011.68
2018-09-27T11:23:49.410Z,1011.69
2018-09-27T11:24:49.504Z,1011.69
2018-09-27T11:25:49.364Z,1011.67
2018-09-27T11:26:49.328Z,1011.67
2018-09-27T11:27:49.368Z,1011.63
2018-09-27T11:28:49.432Z,1011.64
2018-09-27T11:29:49.324Z,1011.58
2018-09-27T11:30:49.304Z,1011.53
2018-09-27T11:31:49.313Z,1011.52
2018-09-27T11:32:49.286Z,1011.49
2018-09-27T11:33:49.301Z,1011.51
2018-09-27T11:34:49.245Z,1011.52
2018-09-27T11:35:49.294Z,1011.48
2018-09-27T11:36:49.297Z,1011.40
2018-09-27T11:37:49.298Z,1011.43
2018-09-27T11:38:49.210Z,1011.31
2018-09-27T11:39:49.199Z,1011.36
2018-09-27T11:40:49.346Z,1011.27
2018-09-27T11:41:49.282Z,1011.27
2018-09-27T11:42:49.232Z,1011.29
2018-09-27T11:43:49.205Z,1011.24
2018-09-27T11:44:49.239Z,1011.21
2018-09-27T11:45:49.231Z,1011.20
2018-09-27T11:46:49.153Z,1011.23
2018-09-27T11:47:49.132Z,1011.13
2018-09-27T11:48:49.426Z,1011.12
2018-09-27T11:49:49.194Z,1011.10
2018-09-27T11:50:49.122Z,1011.10
2018-09-27T11:51:49.129Z,1011.07
2018-09-27T11:52:49.057Z,1011.07
2018-09-27T11:53:49.071Z,1010.99
2018-09-27T11:54:49.111Z,1011.02
2018-09-27T11:55:49.081Z,1010.95
2018-09-27T11:56:49.046Z,1010.95
2018-09-27T11:57:49.483Z,1010.96
2018-09-27T11:58:49.048Z,1010.91
2018-09-27T11:59:48.980Z,1010.86
2018-09-27T12:00:48.978Z,1010.86
2018-09-27T12:01:49.008Z,1010.85
2018-09-27T12:02:48.988Z,1010.80
2018-09-27T12:03:49.023Z,1010.75
2018-09-27T12:04:48.943Z,1010.74
2018-09-27T12:05:49.020Z,1010.71